createdAt,value
2017-04-01T00:00:44.679Z,0
2017-04-01T00:01:44.665Z,0
2017-04-01T00:02:44.650Z,0
2017-04-01T00:03:44.332Z,0
2017-04-01T00:04:44.621Z,0
2017-04-01T00:05:44.605Z,0
2017-04-01T00:06:44.300Z,0
2017-04-01T00:07:44.577Z,0
2017-04-01T00:08:44.267Z,0
2017-04-01T00:09:44.254Z,0
2017-04-01T00:10:44.544Z,0
2017-04-01T00:11:43.927Z,0
2017-04-01T00:12:44.512Z,0
2017-04-01T00:13:44.495Z,0
2017-04-01T00:14:44.486Z,0
2017-04-01T00:15:44.468Z,0
2017-04-01T00:16:44.461Z,0
2017-04-01T00:17:44.445Z,0
2017-04-01T00:18:44.124Z,0
2017-04-01T00:19:44.118Z,0
2017-04-01T00:20:44.102Z,0
2017-04-01T00:21:44.086Z,0
2017-04-01T00:22:44.076Z,0
2017-04-01T00:23:43.767Z,0
2017-04-01T00:24:44.351Z,0
2017-04-01T00:25:44.339Z,0
2017-04-01T00:26:44.322Z,0
2017-04-01T00:27:44.306Z,0
2017-04-01T00:28:44.292Z,0
2017-04-01T00:29:43.979Z,0
2017-04-01T00:30:44.264Z,0
2017-04-01T00:31:44.250Z,0
2017-04-01T00:32:44.235Z,0
2017-04-01T00:33:44.228Z,0
2017-04-01T00:34:44.211Z,0
2017-04-01T00:35:44.197Z,0
2017-04-01T00:36:44.185Z,0
2017-04-01T00:37:44.170Z,0
2017-04-01T00:38:44.177Z,0
2017-04-01T00:39:43.534Z,0
2017-04-01T00:40:44.135Z,0
2017-04-01T00:41:44.114Z,0
2017-04-01T00:42:44.105Z,0
2017-04-01T00:43:43.780Z,0
2017-04-01T00:44:44.072Z,0
2017-04-01T00:45:44.063Z,0
2017-04-01T00:46:44.040Z,0
2017-04-01T00:47:44.027Z,0
2017-04-01T00:48:44.015Z,0
2017-04-01T00:49:44.002Z,0
2017-04-01T00:50:43.383Z,0
2017-04-01T00:51:43.974Z,0
2017-04-01T00:52:43.360Z,0
2017-04-01T00:53:43.947Z,0
2017-04-01T00:54:43.933Z,0
2017-04-01T00:55:43.614Z,0
2017-04-01T00:56:43.299Z,0
2017-04-01T00:57:43.893Z,0
2017-04-01T00:58:43.874Z,0
2017-04-01T00:59:43.864Z,0
2017-04-01T01:00:43.855Z,0
2017-04-01T01:01:43.835Z,0
2017-04-01T01:02:43.222Z,0
2017-04-01T01:03:43.808Z,0
2017-04-01T01:04:43.796Z,0
2017-04-01T01:05:43.781Z,0
2017-04-01T01:06:43.769Z,0
2017-04-01T01:07:43.472Z,0
2017-04-01T01:08:43.136Z,0
2017-04-01T01:09:43.763Z,0
2017-04-01T01:10:43.709Z,0
2017-04-01T01:11:43.702Z,0
2017-04-01T01:12:43.691Z,0
2017-04-01T01:13:43.675Z,0
2017-04-01T01:14:43.053Z,0
2017-04-01T01:15:43.648Z,0
2017-04-01T01:16:43.634Z,0
2017-04-01T01:17:43.317Z,0
2017-04-01T01:18:43.606Z,0
2017-04-01T01:19:43.589Z,0
2017-04-01T01:20:43.267Z,0
2017-04-01T01:21:43.257Z,0
2017-04-01T01:22:43.266Z,0
2017-04-01T01:23:43.528Z,0
2017-04-01T01:24:43.519Z,0
2017-04-01T01:25:43.500Z,0
2017-04-01T01:26:43.189Z,0
2017-04-01T01:27:43.477Z,0
2017-04-01T01:28:43.161Z,0
2017-04-01T01:29:43.448Z,0
2017-04-01T01:30:43.427Z,0
2017-04-01T01:31:43.121Z,0
2017-04-01T01:32:43.096Z,0
2017-04-01T01:33:43.083Z,0
2017-04-01T01:34:43.378Z,0
2017-04-01T01:35:43.060Z,0
2017-04-01T01:36:43.049Z,0
2017-04-01T01:37:43.027Z,0
2017-04-01T01:38:43.017Z,0
2017-04-01T01:39:42.999Z,0
2017-04-01T01:40:42.987Z,0
2017-04-01T01:41:42.975Z,0
2017-04-01T01:42:42.958Z,0
2017-04-01T01:43:43.251Z,0
2017-04-01T01:44:42.628Z,0
2017-04-01T01:45:43.215Z,0
2017-04-01T01:46:43.203Z,0
2017-04-01T01:47:42.886Z,0
2017-04-01T01:48:43.176Z,0
2017-04-01T01:49:42.898Z,0
2017-04-01T01:50:43.146Z,0
2017-04-01T01:51:43.131Z,0
2017-04-01T01:52:43.116Z,0
2017-04-01T01:53:43.105Z,0
2017-04-01T01:54:43.091Z,0
2017-04-01T01:55:42.469Z,0
2017-04-01T01:56:43.096Z,0
2017-04-01T01:57:42.740Z,0
2017-04-01T01:58:42.719Z,0
2017-04-01T01:59:43.010Z,0
2017-04-01T02:00:42.992Z,0
2017-04-01T02:01:42.081Z,0
2017-04-01T02:02:42.973Z,0
2017-04-01T02:03:42.980Z,0
2017-04-01T02:04:42.340Z,0
2017-04-01T02:05:42.927Z,0
2017-04-01T02:06:42.915Z,0
2017-04-01T02:07:42.594Z,0
2017-04-01T02:08:42.585Z,0
2017-04-01T02:09:42.865Z,0
2017-04-01T02:10:42.854Z,0
2017-04-01T02:11:42.542Z,0
2017-04-01T02:12:42.820Z,0
2017-04-01T02:13:42.808Z,0
2017-04-01T02:14:42.191Z,0
2017-04-01T02:15:42.787Z,0
2017-04-01T02:16:42.464Z,0
2017-04-01T02:17:42.746Z,0
2017-04-01T02:18:42.435Z,0
2017-04-01T02:19:42.725Z,0
2017-04-01T02:20:42.709Z,0
2017-04-01T02:21:42.692Z,0
2017-04-01T02:22:42.675Z,0
2017-04-01T02:23:42.367Z,0
2017-04-01T02:24:42.347Z,0
2017-04-01T02:25:42.638Z,0
2017-04-01T02:26:42.622Z,0
2017-04-01T02:27:42.622Z,0
2017-04-01T02:28:42.590Z,0
2017-04-01T02:29:42.579Z,0
2017-04-01T02:30:42.260Z,0
2017-04-01T02:31:42.555Z,0
2017-04-01T02:32:41.631Z,0
2017-04-01T02:33:41.917Z,0
2017-04-01T02:34:42.512Z,0
2017-04-01T02:35:42.493Z,0
2017-04-01T02:36:41.872Z,0
2017-04-01T02:37:42.465Z,0
2017-04-01T02:38:42.453Z,0
2017-04-01T02:39:42.440Z,0
2017-04-01T02:40:42.459Z,0
2017-04-01T02:41:41.808Z,0
2017-04-01T02:42:42.397Z,0
2017-04-01T02:43:42.073Z,0
2017-04-01T02:44:42.382Z,0
2017-04-01T02:45:41.749Z,0
2017-04-01T02:46:42.336Z,0
2017-04-01T02:47:42.021Z,0
2017-04-01T02:48:42.307Z,0
2017-04-01T02:49:42.297Z,0
2017-04-01T02:50:42.289Z,0
2017-04-01T02:51:41.973Z,0
2017-04-01T02:52:42.255Z,0
2017-04-01T02:53:42.239Z,0
2017-04-01T02:54:42.231Z,0
2017-04-01T02:55:42.210Z,0
2017-04-01T02:56:41.898Z,0
2017-04-01T02:57:42.198Z,0
2017-04-01T02:58:41.867Z,0
2017-04-01T02:59:41.552Z,0
2017-04-01T03:00:41.535Z,0
2017-04-01T03:01:42.225Z,0
2017-04-01T03:02:42.111Z,0
2017-04-01T03:03:42.104Z,0
2017-04-01T03:04:42.083Z,0
2017-04-01T03:05:42.070Z,0
2017-04-01T03:06:42.058Z,0
2017-04-01T03:07:41.746Z,0
2017-04-01T03:08:42.032Z,0
2017-04-01T03:09:41.412Z,0
2017-04-01T03:10:42.002Z,0
2017-04-01T03:11:41.688Z,0
2017-04-01T03:12:41.695Z,0
2017-04-01T03:13:41.967Z,0
2017-04-01T03:14:41.980Z,0
2017-04-01T03:15:41.639Z,0
2017-04-01T03:16:41.921Z,0
2017-04-01T03:17:41.599Z,0
2017-04-01T03:18:41.886Z,0
2017-04-01T03:19:41.580Z,0
2017-04-01T03:20:41.865Z,0
2017-04-01T03:21:41.847Z,0
2017-04-01T03:22:41.532Z,0
2017-04-01T03:23:41.524Z,0
2017-04-01T03:24:41.514Z,0
2017-04-01T03:25:41.502Z,0
2017-04-01T03:26:41.772Z,0
2017-04-01T03:27:41.803Z,0
2017-04-01T03:28:41.447Z,0
2017-04-01T03:29:41.736Z,0
2017-04-01T03:30:41.721Z,0
2017-04-01T03:31:41.702Z,0
2017-04-01T03:32:41.644Z,0
2017-04-01T03:33:41.680Z,0
2017-04-01T03:34:41.666Z,0
2017-04-01T03:35:41.652Z,0
2017-04-01T03:36:41.329Z,0
2017-04-01T03:37:41.615Z,0
2017-04-01T03:38:41.298Z,0
2017-04-01T03:39:41.594Z,0
2017-04-01T03:40:41.574Z,0
2017-04-01T03:41:41.258Z,0
2017-04-01T03:42:41.646Z,0
2017-04-01T03:43:41.536Z,0
2017-04-01T03:44:41.522Z,0
2017-04-01T03:45:41.508Z,0
2017-04-01T03:46:41.494Z,0
2017-04-01T03:47:41.474Z,0
2017-04-01T03:48:41.460Z,0
2017-04-01T03:49:41.452Z,0
2017-04-01T03:50:40.836Z,0
2017-04-01T03:51:41.128Z,0
2017-04-01T03:52:41.112Z,0
2017-04-01T03:53:41.395Z,0
2017-04-01T03:54:41.075Z,0
2017-04-01T03:55:41.369Z,0
2017-04-01T03:56:41.349Z,0
2017-04-01T03:57:41.046Z,0
2017-04-01T03:58:41.017Z,0
2017-04-01T03:59:41.005Z,0
2017-04-01T04:00:40.993Z,0
2017-04-01T04:01:41.281Z,0
2017-04-01T04:02:40.962Z,0
2017-04-01T04:03:40.941Z,0
2017-04-01T04:04:41.231Z,0
2017-04-01T04:05:41.214Z,0
2017-04-01T04:06:40.902Z,0
2017-04-01T04:07:41.185Z,0
2017-04-01T04:08:41.172Z,0
2017-04-01T04:09:41.162Z,0
2017-04-01T04:10:41.151Z,0
2017-04-01T04:11:41.124Z,0
2017-04-01T04:12:41.115Z,0
2017-04-01T04:13:41.097Z,0
2017-04-01T04:14:40.778Z,0
2017-04-01T04:15:40.765Z,0
2017-04-01T04:16:40.748Z,0
2017-04-01T04:17:41.037Z,0
2017-04-01T04:18:41.024Z,0
2017-04-01T04:19:41.008Z,0
2017-04-01T04:20:40.993Z,0
2017-04-01T04:21:40.970Z,0
2017-04-01T04:22:40.963Z,0
2017-04-01T04:23:40.939Z,0
2017-04-01T04:24:40.927Z,0
2017-04-01T04:25:40.916Z,0
2017-04-01T04:26:40.903Z,0
2017-04-01T04:27:40.893Z,0
2017-04-01T04:28:40.870Z,0
2017-04-01T04:29:40.553Z,0
2017-04-01T04:30:40.840Z,0
2017-04-01T04:31:40.818Z,0
2017-04-01T04:32:40.811Z,0
2017-04-01T04:33:40.893Z,0
2017-04-01T04:34:40.779Z,0
2017-04-01T04:35:40.462Z,0
2017-04-01T04:36:40.788Z,0
2017-04-01T04:37:40.737Z,0
2017-04-01T04:38:40.728Z,0
2017-04-01T04:39:40.702Z,0
2017-04-01T04:40:40.384Z,5
2017-04-01T04:41:40.372Z,5
2017-04-01T04:42:40.661Z,5
2017-04-01T04:43:40.640Z,5
2017-04-01T04:44:40.632Z,5
2017-04-01T04:45:40.615Z,10
2017-04-01T04:46:40.595Z,10
2017-04-01T04:47:40.278Z,10
2017-04-01T04:48:40.572Z,15
2017-04-01T04:49:40.258Z,15
2017-04-01T04:50:40.538Z,20
2017-04-01T04:51:40.524Z,20
2017-04-01T04:52:40.508Z,25
2017-04-01T04:53:40.489Z,25
2017-04-01T04:54:40.473Z,30
2017-04-01T04:55:40.461Z,35
2017-04-01T04:56:40.445Z,40
2017-04-01T04:57:40.422Z,40
2017-04-01T04:58:40.415Z,45
2017-04-01T04:59:40.399Z,55
2017-04-01T05:00:40.379Z,65
2017-04-01T05:01:40.367Z,75
2017-04-01T05:02:40.372Z,85
2017-04-01T05:03:40.047Z,90
2017-04-01T05:04:40.019Z,85
2017-04-01T05:05:40.302Z,85
2017-04-01T05:06:39.997Z,85
2017-04-01T05:07:40.274Z,90
2017-04-01T05:08:40.295Z,110
2017-04-01T05:09:40.241Z,125
2017-04-01T05:10:40.231Z,120
2017-04-01T05:11:40.210Z,110
2017-04-01T05:12:40.198Z,110
2017-04-01T05:13:40.177Z,120
2017-04-01T05:14:40.161Z,125
2017-04-01T05:15:40.146Z,130
2017-04-01T05:16:40.130Z,135
2017-04-01T05:17:40.113Z,155
2017-04-01T05:18:39.798Z,185
2017-04-01T05:19:40.085Z,200
2017-04-01T05:20:40.100Z,220
2017-04-01T05:21:40.055Z,205
2017-04-01T05:22:40.042Z,185
2017-04-01T05:23:40.035Z,180
2017-04-01T05:24:40.009Z,190
2017-04-01T05:25:39.993Z,195
2017-04-01T05:26:39.985Z,220
2017-04-01T05:27:39.960Z,260
2017-04-01T05:28:39.947Z,290
2017-04-01T05:29:39.934Z,305
2017-04-01T05:30:39.954Z,320
2017-04-01T05:31:39.904Z,335
2017-04-01T05:32:39.889Z,345
2017-04-01T05:33:39.870Z,360
2017-04-01T05:34:39.860Z,365
2017-04-01T05:35:39.537Z,370
2017-04-01T05:36:39.828Z,375
2017-04-01T05:37:39.813Z,415
2017-04-01T05:38:39.800Z,420
2017-04-01T05:39:39.791Z,435
2017-04-01T05:40:39.769Z,440
2017-04-01T05:41:39.754Z,430
2017-04-01T05:42:39.744Z,430
2017-04-01T05:43:39.728Z,460
2017-04-01T05:44:39.711Z,500
2017-04-01T05:45:39.696Z,530
2017-04-01T05:46:39.679Z,545
2017-04-01T05:47:39.366Z,555
2017-04-01T05:48:39.651Z,585
2017-04-01T05:49:39.642Z,610
2017-04-01T05:50:39.319Z,640
2017-04-01T05:51:39.308Z,645
2017-04-01T05:52:39.596Z,665
2017-04-01T05:53:39.614Z,695
2017-04-01T05:54:39.576Z,710
2017-04-01T05:55:39.260Z,760
2017-04-01T05:56:39.242Z,775
2017-04-01T05:57:39.532Z,770
2017-04-01T05:58:39.515Z,750
2017-04-01T05:59:39.502Z,770
2017-04-01T06:00:39.492Z,785
2017-04-01T06:01:39.475Z,795
2017-04-01T06:02:39.155Z,800
2017-04-01T06:03:39.447Z,830
2017-04-01T06:04:38.825Z,860
2017-04-01T06:05:39.420Z,900
2017-04-01T06:06:39.408Z,955
2017-04-01T06:07:39.394Z,935
2017-04-01T06:08:39.076Z,915
2017-04-01T06:09:39.363Z,870
2017-04-01T06:10:39.347Z,850
2017-04-01T06:11:39.335Z,840
2017-04-01T06:12:39.314Z,840
2017-04-01T06:13:39.303Z,875
2017-04-01T06:14:39.283Z,1000
2017-04-01T06:15:39.271Z,1120
2017-04-01T06:16:39.260Z,1135
2017-04-01T06:17:39.245Z,1120
2017-04-01T06:18:39.228Z,1130
2017-04-01T06:19:38.925Z,1155
2017-04-01T06:20:39.206Z,1185
2017-04-01T06:21:39.201Z,1170
2017-04-01T06:22:39.208Z,1185
2017-04-01T06:23:38.864Z,1180
2017-04-01T06:24:38.853Z,1150
2017-04-01T06:25:39.130Z,1125
2017-04-01T06:26:38.528Z,1155
2017-04-01T06:27:39.109Z,1315
2017-04-01T06:28:39.099Z,1330
2017-04-01T06:29:39.076Z,1240
2017-04-01T06:30:39.079Z,1265
2017-04-01T06:31:38.761Z,1260
2017-04-01T06:32:38.750Z,1335
2017-04-01T06:33:39.034Z,1440
2017-04-01T06:34:39.042Z,1470
2017-04-01T06:35:39.011Z,1410
2017-04-01T06:36:38.394Z,1355
2017-04-01T06:37:38.978Z,1380
2017-04-01T06:38:38.692Z,1455
2017-04-01T06:39:38.954Z,1515
2017-04-01T06:40:38.643Z,1500
2017-04-01T06:41:38.627Z,1545
2017-04-01T06:42:38.916Z,1515
2017-04-01T06:43:38.604Z,1420
2017-04-01T06:44:38.894Z,1430
2017-04-01T06:45:38.881Z,1430
2017-04-01T06:46:38.869Z,1425
2017-04-01T06:47:38.555Z,1535
2017-04-01T06:48:38.839Z,1410
2017-04-01T06:49:38.838Z,1335
2017-04-01T06:50:38.819Z,1540
2017-04-01T06:51:38.809Z,1580
2017-04-01T06:52:38.799Z,1305
2017-04-01T06:53:38.783Z,1340
2017-04-01T06:54:38.470Z,1160
2017-04-01T06:55:38.759Z,1185
2017-04-01T06:56:38.759Z,1145
2017-04-01T06:57:38.740Z,1110
2017-04-01T06:58:38.730Z,1090
2017-04-01T06:59:38.710Z,1080
2017-04-01T07:00:38.403Z,1025
2017-04-01T07:01:38.690Z,950
2017-04-01T07:02:38.681Z,870
2017-04-01T07:03:38.668Z,845
2017-04-01T07:04:38.358Z,1005
2017-04-01T07:05:38.644Z,1155
2017-04-01T07:06:38.335Z,1255
2017-04-01T07:07:38.315Z,1425
2017-04-01T07:08:38.606Z,1480
2017-04-01T07:09:38.600Z,1610
2017-04-01T07:10:38.587Z,1750
2017-04-01T07:11:38.571Z,1600
2017-04-01T07:12:38.570Z,1475
2017-04-01T07:13:38.551Z,1370
2017-04-01T07:14:38.537Z,1420
2017-04-01T07:15:38.222Z,1615
2017-04-01T07:16:38.512Z,1560
2017-04-01T07:17:37.895Z,1490
2017-04-01T07:18:38.492Z,1590
2017-04-01T07:19:38.524Z,1585
2017-04-01T07:20:38.168Z,1690
2017-04-01T07:21:38.454Z,1865
2017-04-01T07:22:38.450Z,1910
2017-04-01T07:23:38.434Z,1800
2017-04-01T07:24:38.125Z,2000
2017-04-01T07:25:38.111Z,2200
2017-04-01T07:26:38.403Z,2270
2017-04-01T07:27:38.396Z,2310
2017-04-01T07:28:38.373Z,2160
2017-04-01T07:29:38.364Z,2030
2017-04-01T07:30:38.363Z,2250
2017-04-01T07:31:38.345Z,2200
2017-04-01T07:32:38.335Z,2260
2017-04-01T07:33:38.027Z,2350
2017-04-01T07:34:38.314Z,2330
2017-04-01T07:35:38.307Z,2315
2017-04-01T07:36:38.294Z,2265
2017-04-01T07:37:38.280Z,2500
2017-04-01T07:38:38.267Z,2530
2017-04-01T07:39:38.256Z,2435
2017-04-01T07:40:37.938Z,2255
2017-04-01T07:41:38.235Z,1925
2017-04-01T07:42:38.218Z,2000
2017-04-01T07:43:38.211Z,2280
2017-04-01T07:44:38.198Z,2345
2017-04-01T07:45:38.193Z,2270
2017-04-01T07:46:37.879Z,2115
2017-04-01T07:47:38.155Z,2025
2017-04-01T07:48:38.148Z,2155
2017-04-01T07:49:37.843Z,2360
2017-04-01T07:50:38.130Z,2360
2017-04-01T07:51:38.114Z,2290
2017-04-01T07:52:38.113Z,2215
2017-04-01T07:53:38.098Z,2305
2017-04-01T07:54:37.775Z,2375
2017-04-01T07:55:38.073Z,2330
2017-04-01T07:56:38.085Z,2170
2017-04-01T07:57:38.044Z,2225
2017-04-01T07:58:38.037Z,2490
2017-04-01T07:59:38.018Z,2630
2017-04-01T08:00:37.702Z,2675
2017-04-01T08:01:37.401Z,2535
2017-04-01T08:02:37.990Z,2370
2017-04-01T08:03:37.977Z,2560
2017-04-01T08:04:37.963Z,2650
2017-04-01T08:05:37.647Z,2740
2017-04-01T08:06:37.940Z,2790
2017-04-01T08:07:37.927Z,2845
2017-04-01T08:08:37.920Z,2630
2017-04-01T08:09:37.906Z,2750
2017-04-01T08:10:37.899Z,2730
2017-04-01T08:11:37.582Z,2210
2017-04-01T08:12:37.873Z,2150
2017-04-01T08:13:37.560Z,2305
2017-04-01T08:14:37.849Z,2470
2017-04-01T08:15:37.835Z,2370
2017-04-01T08:16:37.830Z,2480
2017-04-01T08:17:37.821Z,2545
2017-04-01T08:18:37.803Z,2490
2017-04-01T08:19:37.494Z,2740
2017-04-01T08:20:37.479Z,2685
2017-04-01T08:21:37.776Z,2580
2017-04-01T08:22:37.760Z,2835
2017-04-01T08:23:37.758Z,2980
2017-04-01T08:24:37.745Z,2825
2017-04-01T08:25:37.728Z,2730
2017-04-01T08:26:37.726Z,2665
2017-04-01T08:27:37.411Z,2375
2017-04-01T08:28:37.701Z,2665
2017-04-01T08:29:37.388Z,2610
2017-04-01T08:30:37.685Z,2680
2017-04-01T08:31:37.368Z,2835
2017-04-01T08:32:37.659Z,2435
2017-04-01T08:33:37.346Z,2310
2017-04-01T08:34:37.636Z,2390
2017-04-01T08:35:37.623Z,2370
2017-04-01T08:36:37.617Z,2480
2017-04-01T08:37:37.609Z,2320
2017-04-01T08:38:37.595Z,2470
2017-04-01T08:39:37.583Z,2585
2017-04-01T08:40:37.269Z,2505
2017-04-01T08:41:37.565Z,2920
2017-04-01T08:42:37.552Z,3050
2017-04-01T08:43:37.540Z,2790
2017-04-01T08:44:37.533Z,2695
2017-04-01T08:45:37.517Z,2935
2017-04-01T08:46:37.513Z,2865
2017-04-01T08:47:37.499Z,2650
2017-04-01T08:48:37.184Z,2980
2017-04-01T08:49:37.170Z,3035
2017-04-01T08:50:37.171Z,2905
2017-04-01T08:51:37.459Z,2845
2017-04-01T08:52:37.447Z,2675
2017-04-01T08:53:37.428Z,3260
2017-04-01T08:54:37.424Z,3420
2017-04-01T08:55:37.419Z,3025
2017-04-01T08:56:37.402Z,2945
2017-04-01T08:57:36.787Z,2990
2017-04-01T08:58:37.379Z,2530
2017-04-01T08:59:37.070Z,2500
2017-04-01T09:00:37.361Z,2560
2017-04-01T09:01:37.356Z,2850
2017-04-01T09:02:37.335Z,2400
2017-04-01T09:03:37.328Z,2355
2017-04-01T09:04:37.322Z,2560
2017-04-01T09:05:37.305Z,2675
2017-04-01T09:06:37.306Z,2850
2017-04-01T09:07:36.981Z,2660
2017-04-01T09:08:36.974Z,2740
2017-04-01T09:09:37.271Z,2530
2017-04-01T09:10:37.255Z,2540
2017-04-01T09:11:37.246Z,2430
2017-04-01T09:12:37.229Z,2555
2017-04-01T09:13:36.914Z,2945
2017-04-01T09:14:37.206Z,2720
2017-04-01T09:15:37.205Z,2570
2017-04-01T09:16:36.902Z,2585
2017-04-01T09:17:37.173Z,2685
2017-04-01T09:18:36.859Z,2640
2017-04-01T09:19:37.158Z,2620
2017-04-01T09:20:37.142Z,2810
2017-04-01T09:21:37.131Z,3105
2017-04-01T09:22:37.115Z,2740
2017-04-01T09:23:36.507Z,2805
2017-04-01T09:24:37.099Z,3135
2017-04-01T09:25:36.775Z,2950
2017-04-01T09:26:36.772Z,2870
2017-04-01T09:27:37.068Z,2905
2017-04-01T09:28:37.044Z,2950
2017-04-01T09:29:37.040Z,2905
2017-04-01T09:30:37.030Z,2810
2017-04-01T09:31:37.020Z,2985
2017-04-01T09:32:37.013Z,3285
2017-04-01T09:33:36.993Z,3350
2017-04-01T09:34:36.681Z,3245
2017-04-01T09:35:36.372Z,3380
2017-04-01T09:36:36.959Z,3360
2017-04-01T09:37:36.660Z,2950
2017-04-01T09:38:36.940Z,2545
2017-04-01T09:39:36.928Z,2200
2017-04-01T09:40:36.924Z,2265
2017-04-01T09:41:36.910Z,2325
2017-04-01T09:42:36.907Z,2315
2017-04-01T09:43:36.889Z,2270
2017-04-01T09:44:36.880Z,2260
2017-04-01T09:45:36.867Z,2280
2017-04-01T09:46:36.254Z,2485
2017-04-01T09:47:36.844Z,3225
2017-04-01T09:48:36.838Z,3055
2017-04-01T09:49:37.046Z,3590
2017-04-01T09:50:36.516Z,3060
2017-04-01T09:51:36.510Z,3250
2017-04-01T09:52:36.797Z,3450
2017-04-01T09:53:36.998Z,3210
2017-04-01T09:54:36.977Z,3125
2017-04-01T09:55:36.763Z,3155
2017-04-01T09:56:36.761Z,3220
2017-04-01T09:57:36.747Z,3085
2017-04-01T09:58:36.730Z,3035
2017-04-01T09:59:36.114Z,2945
2017-04-01T10:00:36.712Z,2875
2017-04-01T10:01:36.705Z,2840
2017-04-01T10:02:36.683Z,3055
2017-04-01T10:03:36.672Z,2895
2017-04-01T10:04:36.666Z,2745
2017-04-01T10:05:36.654Z,2820
2017-04-01T10:06:36.344Z,2920
2017-04-01T10:07:36.637Z,3050
2017-04-01T10:08:36.620Z,3010
2017-04-01T10:09:36.616Z,3135
2017-04-01T10:10:36.298Z,2860
2017-04-01T10:11:36.289Z,2910
2017-04-01T10:12:36.577Z,2780
2017-04-01T10:13:36.614Z,2615
2017-04-01T10:14:36.563Z,2520
2017-04-01T10:15:36.545Z,2635
2017-04-01T10:16:36.544Z,2610
2017-04-01T10:17:36.525Z,2500
2017-04-01T10:18:36.512Z,2595
2017-04-01T10:19:50.133Z,2595
2017-04-01T10:20:36.495Z,2995
2017-04-01T10:21:36.487Z,3060
2017-04-01T10:22:36.474Z,2695
2017-04-01T10:23:36.470Z,2780
2017-04-01T10:24:49.832Z,2810
2017-04-01T10:25:36.440Z,2955
2017-04-01T10:26:36.129Z,2645
2017-04-01T10:27:36.418Z,2510
2017-04-01T10:28:36.411Z,2555
2017-04-01T10:29:36.605Z,2495
2017-04-01T10:30:36.384Z,2515
2017-04-01T10:31:36.375Z,2555
2017-04-01T10:32:36.368Z,2505
2017-04-01T10:33:36.390Z,2360
2017-04-01T10:34:36.347Z,2385
2017-04-01T10:35:36.029Z,2350
2017-04-01T10:36:36.325Z,2240
2017-04-01T10:37:36.313Z,2180
2017-04-01T10:38:36.302Z,2150
2017-04-01T10:39:36.286Z,2140
2017-04-01T10:40:35.971Z,2040
2017-04-01T10:41:36.274Z,2030
2017-04-01T10:42:36.258Z,2020
2017-04-01T10:43:36.242Z,2090
2017-04-01T10:44:36.242Z,2125
2017-04-01T10:45:36.216Z,2065
2017-04-01T10:46:36.212Z,2205
2017-04-01T10:47:36.205Z,2265
2017-04-01T10:48:35.881Z,2290
2017-04-01T10:49:36.174Z,2180
2017-04-01T10:50:36.162Z,2175
2017-04-01T10:51:35.852Z,2090
2017-04-01T10:52:36.138Z,2070
2017-04-01T10:53:36.124Z,2065
2017-04-01T10:54:36.062Z,2055
2017-04-01T10:55:36.104Z,2035
2017-04-01T10:56:36.098Z,2005
2017-04-01T10:57:36.077Z,2010
2017-04-01T10:58:35.764Z,2030
2017-04-01T10:59:36.259Z,2055
2017-04-01T11:00:35.445Z,2030
2017-04-01T11:01:35.730Z,2000
2017-04-01T11:02:36.019Z,2015
2017-04-01T11:03:36.207Z,2195
2017-04-01T11:04:36.204Z,2190
2017-04-01T11:05:35.681Z,2355
2017-04-01T11:06:35.969Z,2350
2017-04-01T11:07:35.658Z,2550
2017-04-01T11:08:35.946Z,2375
2017-04-01T11:09:35.938Z,2325
2017-04-01T11:10:35.919Z,2310
2017-04-01T11:11:35.912Z,2285
2017-04-01T11:12:35.597Z,2235
2017-04-01T11:13:35.883Z,2280
2017-04-01T11:14:35.872Z,2265
2017-04-01T11:15:35.859Z,2280
2017-04-01T11:16:35.556Z,2260
2017-04-01T11:17:35.841Z,2320
2017-04-01T11:18:35.521Z,2390
2017-04-01T11:19:35.812Z,2380
2017-04-01T11:20:35.804Z,2405
2017-04-01T11:21:35.791Z,2460
2017-04-01T11:22:35.779Z,2395
2017-04-01T11:23:35.765Z,2515
2017-04-01T11:24:35.353Z,2500
2017-04-01T11:25:35.745Z,2660
2017-04-01T11:26:35.723Z,2835
2017-04-01T11:27:35.414Z,3080
2017-04-01T11:28:35.710Z,2930
2017-04-01T11:29:35.695Z,2815
2017-04-01T11:30:35.681Z,2620
2017-04-01T11:31:35.671Z,2685
2017-04-01T11:32:50.268Z,2420
2017-04-01T11:33:35.658Z,2300
2017-04-01T11:34:35.842Z,2255
2017-04-01T11:35:35.627Z,2170
2017-04-01T11:36:35.609Z,2235
2017-04-01T11:37:35.611Z,2505
2017-04-01T11:38:35.294Z,2755
2017-04-01T11:39:49.220Z,3030
2017-04-01T11:40:35.573Z,3205
2017-04-01T11:41:35.258Z,3095
2017-04-01T11:42:35.550Z,2900
2017-04-01T11:43:35.541Z,2725
2017-04-01T11:44:35.531Z,2790
2017-04-01T11:45:35.515Z,2510
2017-04-01T11:46:35.200Z,2440
2017-04-01T11:47:35.497Z,2220
2017-04-01T11:48:34.882Z,1985
2017-04-01T11:49:35.474Z,1900
2017-04-01T11:50:35.462Z,1875
2017-04-01T11:51:35.451Z,1895
2017-04-01T11:52:35.435Z,1825
2017-04-01T11:53:35.429Z,1810
2017-04-01T11:54:35.416Z,1780
2017-04-01T11:55:35.142Z,1795
2017-04-01T11:56:35.400Z,1860
2017-04-01T11:57:35.383Z,1865
2017-04-01T11:58:35.072Z,1820
2017-04-01T11:59:34.759Z,1805
2017-04-01T12:00:35.043Z,1820
2017-04-01T12:01:35.339Z,1880
2017-04-01T12:02:35.330Z,1930
2017-04-01T12:03:35.313Z,2065
2017-04-01T12:04:35.206Z,2105
2017-04-01T12:05:35.291Z,2065
2017-04-01T12:06:34.977Z,2080
2017-04-01T12:07:35.368Z,2095
2017-04-01T12:08:35.254Z,2125
2017-04-01T12:09:34.939Z,2080
2017-04-01T12:10:35.224Z,2075
2017-04-01T12:11:35.217Z,2130
2017-04-01T12:12:34.901Z,2285
2017-04-01T12:13:35.186Z,2415
2017-04-01T12:14:34.780Z,2250
2017-04-01T12:15:34.868Z,2315
2017-04-01T12:16:35.194Z,2230
2017-04-01T12:17:35.138Z,2040
2017-04-01T12:18:35.129Z,1965
2017-04-01T12:19:35.116Z,1895
2017-04-01T12:20:34.805Z,1835
2017-04-01T12:21:35.104Z,1805
2017-04-01T12:22:35.092Z,1780
2017-04-01T12:23:35.071Z,1760
2017-04-01T12:24:35.099Z,1725
2017-04-01T12:25:35.056Z,1670
2017-04-01T12:26:35.042Z,1665
2017-04-01T12:27:35.031Z,1725
2017-04-01T12:28:35.019Z,1750
2017-04-01T12:29:35.042Z,1785
2017-04-01T12:30:34.993Z,1785
2017-04-01T12:31:34.982Z,1775
2017-04-01T12:32:34.972Z,1750
2017-04-01T12:33:34.958Z,1705
2017-04-01T12:34:34.644Z,1625
2017-04-01T12:35:34.628Z,1555
2017-04-01T12:36:34.626Z,1560
2017-04-01T12:37:34.915Z,1620
2017-04-01T12:38:34.905Z,1700
2017-04-01T12:39:34.890Z,1755
2017-04-01T12:40:34.562Z,1765
2017-04-01T12:41:34.863Z,1790
2017-04-01T12:42:34.847Z,1770
2017-04-01T12:43:34.835Z,1775
2017-04-01T12:44:34.723Z,1785
2017-04-01T12:45:34.808Z,1770
2017-04-01T12:46:34.800Z,1750
2017-04-01T12:47:34.784Z,1740
2017-04-01T12:48:34.973Z,1740
2017-04-01T12:49:34.962Z,1770
2017-04-01T12:50:34.445Z,1820
2017-04-01T12:51:34.741Z,1830
2017-04-01T12:52:34.728Z,1840
2017-04-01T12:53:34.713Z,1880
2017-04-01T12:54:34.700Z,1850
2017-04-01T12:55:34.689Z,1825
2017-04-01T12:56:34.674Z,1800
2017-04-01T12:57:34.665Z,1775
2017-04-01T12:58:34.648Z,1775
2017-04-01T12:59:34.641Z,1785
2017-04-01T13:00:34.325Z,1795
2017-04-01T13:01:34.613Z,1765
2017-04-01T13:02:34.609Z,1690
2017-04-01T13:03:34.284Z,1600
2017-04-01T13:04:34.577Z,1515
2017-04-01T13:05:34.557Z,1445
2017-04-01T13:06:34.556Z,1425
2017-04-01T13:07:34.569Z,1490
2017-04-01T13:08:34.525Z,1550
2017-04-01T13:09:34.518Z,1580
2017-04-01T13:10:34.507Z,1580
2017-04-01T13:11:34.487Z,1575
2017-04-01T13:12:34.486Z,1560
2017-04-01T13:13:34.462Z,1555
2017-04-01T13:14:34.449Z,1540
2017-04-01T13:15:34.042Z,1525
2017-04-01T13:16:34.429Z,1495
2017-04-01T13:17:34.411Z,1485
2017-04-01T13:18:34.136Z,1465
2017-04-01T13:19:33.788Z,1460
2017-04-01T13:20:34.381Z,1490
2017-04-01T13:21:34.365Z,1495
2017-04-01T13:22:34.064Z,1490
2017-04-01T13:23:34.548Z,1475
2017-04-01T13:24:34.035Z,1465
2017-04-01T13:25:34.323Z,1450
2017-04-01T13:26:34.012Z,1435
2017-04-01T13:27:33.994Z,1425
2017-04-01T13:28:34.284Z,1415
2017-04-01T13:29:34.432Z,1410
2017-04-01T13:30:34.262Z,1410
2017-04-01T13:31:34.251Z,1415
2017-04-01T13:32:33.940Z,1440
2017-04-01T13:33:34.230Z,1475
2017-04-01T13:34:33.915Z,1485
2017-04-01T13:35:34.210Z,1505
2017-04-01T13:36:34.189Z,1515
2017-04-01T13:37:34.182Z,1530
2017-04-01T13:38:34.167Z,1490
2017-04-01T13:39:34.160Z,1485
2017-04-01T13:40:33.843Z,1490
2017-04-01T13:41:33.823Z,1495
2017-04-01T13:42:34.122Z,1515
2017-04-01T13:43:34.103Z,1530
2017-04-01T13:44:34.090Z,1545
2017-04-01T13:45:34.087Z,1605
2017-04-01T13:46:33.762Z,1765
2017-04-01T13:47:33.757Z,1785
2017-04-01T13:48:33.743Z,1740
2017-04-01T13:49:33.727Z,1650
2017-04-01T13:50:33.723Z,1590